Time;durP1;ratioP1;P1;durP2;ratioP2;P2;SDS_P1;SDS_P2;PMS_P1;PMS_P2;Temp;Humidity;BMP_temperature;BMP_pressure;BME280_temperature;BME280_humidity;BME280_pressure;Samples;Min_cycle;Max_cycle;Signal;HPM_P1;HPM_P2
2022/10/08 00:01:22;;;;;;;10.60;6.90;;;;;;;;;;5097414;28;20785;-65
2022/10/08 00:03:51;;;;;;;8.67;5.77;;;;;;;;;;5097529;28;20255;-64
2022/10/08 00:06:20;;;;;;;11.70;7.10;;;;;;;;;;5097815;28;20208;-63
2022/10/08 00:08:52;;;;;;;8.83;5.63;;;;;;;;;;5097555;28;20216;-65
2022/10/08 00:11:21;;;;;;;13.23;6.67;;;;;;;;;;5097007;28;20241;-63
2022/10/08 00:13:50;;;;;;;13.00;5.93;;;;;;;;;;5097814;28;20348;-64
2022/10/08 00:16:20;;;;;;;10.03;5.47;;;;;;;;;;5097923;28;20212;-63
2022/10/08 00:18:49;;;;;;;7.67;5.43;;;;;;;;;;5097630;28;20205;-65
2022/10/08 00:21:19;;;;;;;5.87;5.10;;;;;;;;;;5097345;28;20590;-65
2022/10/08 00:23:48;;;;;;;7.33;5.03;;;;;;;;;;5097252;28;20221;-65
2022/10/08 00:26:19;;;;;;;11.27;5.50;;;;;;;;;;5097325;28;20205;-65
2022/10/08 00:28:47;;;;;;;8.10;5.03;;;;;;;;;;5097469;28;20205;-65
2022/10/08 00:31:16;;;;;;;7.67;5.13;;;;;;;;;;5101339;28;20284;-65
2022/10/08 00:33:44;;;;;;;8.43;5.50;;;;;;;;;;5101327;28;20235;-65
2022/10/08 00:36:13;;;;;;;8.53;5.73;;;;;;;;;;5101203;28;20207;-64
2022/10/08 00:38:41;;;;;;;8.07;5.43;;;;;;;;;;5101023;28;20211;-64
2022/10/08 00:41:16;;;;;;;7.20;5.00;;;;;;;;;;5100911;28;20206;-65
2022/10/08 00:43:46;;;;;;;10.47;5.67;;;;;;;;;;5100906;28;20313;-66
2022/10/08 00:46:19;;;;;;;7.57;5.30;;;;;;;;;;5101261;28;20293;-65
2022/10/08 00:48:48;;;;;;;8.13;5.27;;;;;;;;;;5100906;28;20292;-65
2022/10/08 00:51:16;;;;;;;7.70;4.97;;;;;;;;;;5100754;28;20547;-65
2022/10/08 00:53:44;;;;;;;5.60;5.03;;;;;;;;;;5100668;28;20301;-65
2022/10/08 00:56:12;;;;;;;9.67;4.43;;;;;;;;;;5100602;28;20289;-65
2022/10/08 00:58:41;;;;;;;5.77;5.10;;;;;;;;;;5100784;28;20237;-65
2022/10/08 01:01:12;;;;;;;6.57;5.37;;;;;;;;;;5100835;28;20209;-65
2022/10/08 01:03:40;;;;;;;6.03;4.53;;;;;;;;;;5100520;28;20300;-65
2022/10/08 01:06:14;;;;;;;6.10;4.73;;;;;;;;;;5100812;28;20227;-65
2022/10/08 01:08:47;;;;;;;5.97;4.97;;;;;;;;;;5100929;28;20296;-65
2022/10/08 01:11:21;;;;;;;9.17;4.97;;;;;;;;;;5100094;28;20216;-65
2022/10/08 01:13:56;;;;;;;6.83;4.90;;;;;;;;;;5100620;28;20221;-65
2022/10/08 01:16:30;;;;;;;7.40;4.90;;;;;;;;;;5100713;28;20205;-65
2022/10/08 01:19:04;;;;;;;7.47;4.43;;;;;;;;;;5100471;28;20306;-64
2022/10/08 01:21:36;;;;;;;8.97;4.70;;;;;;;;;;5100560;28;20292;-65
2022/10/08 01:24:17;;;;;;;8.70;4.70;;;;;;;;;;5100375;28;20244;-65
2022/10/08 01:26:57;;;;;;;4.93;4.27;;;;;;;;;;5100059;28;20205;-65
2022/10/08 01:29:28;;;;;;;8.77;4.43;;;;;;;;;;5100232;28;20209;-65
2022/10/08 01:32:02;;;;;;;7.43;4.70;;;;;;;;;;5100291;28;20205;-65
2022/10/08 01:34:32;;;;;;;6.47;4.73;;;;;;;;;;5100288;28;20229;-65
2022/10/08 01:37:02;;;;;;;6.77;4.50;;;;;;;;;;5099986;28;20725;-65
2022/10/08 01:39:31;;;;;;;5.83;4.33;;;;;;;;;;5100120;28;20728;-65
2022/10/08 01:42:02;;;;;;;7.07;3.90;;;;;;;;;;5099429;28;20308;-65
2022/10/08 01:44:32;;;;;;;6.07;4.93;;;;;;;;;;5099748;28;20726;-65
2022/10/08 01:47:03;;;;;;;7.40;3.93;;;;;;;;;;5099831;28;20209;-65
2022/10/08 01:49:34;;;;;;;5.23;3.93;;;;;;;;;;5100043;28;20292;-65
2022/10/08 01:52:06;;;;;;;12.77;4.80;;;;;;;;;;5099608;28;20233;-64
2022/10/08 01:54:35;;;;;;;5.17;4.10;;;;;;;;;;5099637;28;20233;-65
2022/10/08 01:57:05;;;;;;;6.10;4.00;;;;;;;;;;5099341;28;20276;-63
2022/10/08 01:59:36;;;;;;;6.67;3.83;;;;;;;;;;5099414;28;20576;-64
2022/10/08 02:02:08;;;;;;;7.80;4.40;;;;;;;;;;5099703;28;20304;-63
2022/10/08 02:04:36;;;;;;;7.03;5.00;;;;;;;;;;5099406;28;20247;-63
2022/10/08 02:07:06;;;;;;;7.40;4.90;;;;;;;;;;5099307;28;20205;-63
2022/10/08 02:09:35;;;;;;;7.97;4.30;;;;;;;;;;5099572;28;20292;-64
2022/10/08 02:12:04;;;;;;;8.40;4.13;;;;;;;;;;5099177;28;20205;-65
2022/10/08 02:14:35;;;;;;;6.90;4.00;;;;;;;;;;5099299;28;20225;-65
2022/10/08 02:17:07;;;;;;;8.00;4.50;;;;;;;;;;5099384;28;20205;-65
2022/10/08 02:19:42;;;;;;;5.23;4.17;;;;;;;;;;5099440;28;20216;-65
2022/10/08 02:22:11;;;;;;;5.77;4.27;;;;;;;;;;5099231;28;22184;-65
2022/10/08 02:24:41;;;;;;;8.80;4.80;;;;;;;;;;5099362;28;20294;-65
2022/10/08 02:27:11;;;;;;;4.50;4.10;;;;;;;;;;5098903;28;20205;-65
2022/10/08 02:29:42;;;;;;;7.87;4.30;;;;;;;;;;5099064;28;20205;-65
2022/10/08 02:32:14;;;;;;;5.53;4.60;;;;;;;;;;5098921;28;20296;-65
2022/10/08 02:34:45;;;;;;;7.30;4.70;;;;;;;;;;5099109;28;20232;-65
2022/10/08 02:37:15;;;;;;;8.03;4.90;;;;;;;;;;5098898;28;20207;-65
2022/10/08 02:39:46;;;;;;;8.37;4.77;;;;;;;;;;5099061;28;20212;-65
2022/10/08 02:42:17;;;;;;;5.77;4.50;;;;;;;;;;5098544;28;20213;-65
2022/10/08 02:44:49;;;;;;;8.53;4.80;;;;;;;;;;5098580;28;20592;-65
2022/10/08 02:47:19;;;;;;;7.87;4.30;;;;;;;;;;5098689;28;20733;-64
2022/10/08 02:49:50;;;;;;;9.20;4.13;;;;;;;;;;5098650;28;20212;-63
2022/10/08 02:52:19;;;;;;;7.27;3.83;;;;;;;;;;5085334;28;20239;-63
2022/10/08 02:54:49;;;;;;;5.83;4.43;;;;;;;;;;5098635;28;20312;-63
2022/10/08 02:57:18;;;;;;;8.13;4.67;;;;;;;;;;5098115;28;20677;-63
2022/10/08 02:59:48;;;;;;;10.07;4.50;;;;;;;;;;5098630;28;20205;-63
2022/10/08 03:02:19;;;;;;;6.40;4.47;;;;;;;;;;5098230;28;20202;-64
2022/10/08 03:04:51;;;;;;;9.33;4.57;;;;;;;;;;5098142;28;20225;-65
2022/10/08 03:07:21;;;;;;;8.40;4.53;;;;;;;;;;5098229;28;20665;-63
2022/10/08 03:09:51;;;;;;;6.57;4.10;;;;;;;;;;5098150;28;20205;-64
2022/10/08 03:12:19;;;;;;;7.53;4.03;;;;;;;;;;5097636;28;20607;-63
2022/10/08 03:14:51;;;;;;;8.67;4.47;;;;;;;;;;5098042;28;20592;-64
2022/10/08 03:17:22;;;;;;;7.30;4.47;;;;;;;;;;5097873;28;20233;-65
2022/10/08 03:19:50;;;;;;;6.10;4.70;;;;;;;;;;5097960;28;20216;-64
2022/10/08 03:22:19;;;;;;;8.60;4.73;;;;;;;;;;5097875;28;20282;-64
2022/10/08 03:24:47;;;;;;;7.67;4.17;;;;;;;;;;5097989;28;20229;-64
2022/10/08 03:27:15;;;;;;;8.70;4.63;;;;;;;;;;5097501;28;20213;-65
2022/10/08 03:29:43;;;;;;;6.17;4.73;;;;;;;;;;5098197;28;20205;-65
2022/10/08 03:32:12;;;;;;;6.33;5.07;;;;;;;;;;5097872;28;20206;-65
2022/10/08 03:34:40;;;;;;;7.43;4.73;;;;;;;;;;5097770;28;20709;-64
2022/10/08 03:37:08;;;;;;;5.00;4.43;;;;;;;;;;5097896;28;20568;-65
2022/10/08 03:39:36;;;;;;;10.33;4.70;;;;;;;;;;5098070;28;20288;-64
2022/10/08 03:42:04;;;;;;;9.70;4.80;;;;;;;;;;5097163;28;20208;-64
2022/10/08 03:44:32;;;;;;;11.33;5.10;;;;;;;;;;5097787;28;20229;-63
2022/10/08 03:47:00;;;;;;;6.20;4.37;;;;;;;;;;5097559;28;20217;-64
2022/10/08 03:49:30;;;;;;;5.30;4.67;;;;;;;;;;5097963;28;20276;-64
2022/10/08 03:51:58;;;;;;;5.70;4.17;;;;;;;;;;5097554;28;20708;-65
2022/10/08 03:54:26;;;;;;;6.63;4.73;;;;;;;;;;5097833;28;20231;-65
2022/10/08 03:56:54;;;;;;;8.87;4.50;;;;;;;;;;5097173;28;20695;-65
2022/10/08 03:59:22;;;;;;;6.33;4.10;;;;;;;;;;5097442;28;20209;-65
2022/10/08 04:01:50;;;;;;;9.13;4.63;;;;;;;;;;5097402;28;20205;-65
2022/10/08 04:04:18;;;;;;;7.07;4.97;;;;;;;;;;5098074;28;20225;-64
2022/10/08 04:06:53;;;;;;;5.90;4.73;;;;;;;;;;5101816;28;20748;-64
2022/10/08 04:09:21;;;;;;;9.20;4.60;;;;;;;;;;5101924;28;20205;-64
2022/10/08 04:11:49;;;;;;;8.87;4.83;;;;;;;;;;5098055;28;20211;-64
2022/10/08 04:14:17;;;;;;;7.63;4.90;;;;;;;;;;5098800;28;20221;-64
2022/10/08 04:16:46;;;;;;;6.47;4.70;;;;;;;;;;5099858;28;20741;-63
2022/10/08 04:19:16;;;;;;;8.30;4.83;;;;;;;;;;5097354;28;20197;-65
2022/10/08 04:21:44;;;;;;;5.33;3.90;;;;;;;;;;5097399;28;20216;-65
2022/10/08 04:24:13;;;;;;;6.73;5.07;;;;;;;;;;5100414;28;20231;-65
2022/10/08 04:26:42;;;;;;;7.33;5.00;;;;;;;;;;5096910;28;20223;-64
2022/10/08 04:29:11;;;;;;;7.00;4.47;;;;;;;;;;5095683;28;20202;-65
2022/10/08 04:31:39;;;;;;;7.40;4.33;;;;;;;;;;5100374;28;20201;-64
2022/10/08 04:34:11;;;;;;;7.53;4.00;;;;;;;;;;5097419;28;20213;-63
2022/10/08 04:36:39;;;;;;;6.00;3.83;;;;;;;;;;5097472;28;20289;-64
2022/10/08 04:39:09;;;;;;;8.30;4.50;;;;;;;;;;5097262;28;20284;-65
2022/10/08 04:41:39;;;;;;;4.77;4.00;;;;;;;;;;5099598;28;20753;-65
2022/10/08 04:44:07;;;;;;;7.27;3.53;;;;;;;;;;5097262;28;20225;-64
2022/10/08 04:46:35;;;;;;;6.70;3.87;;;;;;;;;;5097327;28;20247;-64
2022/10/08 04:49:03;;;;;;;5.07;3.20;;;;;;;;;;5099987;28;20193;-63
2022/10/08 04:51:32;;;;;;;5.67;3.80;;;;;;;;;;5096073;28;20632;-63
2022/10/08 04:54:00;;;;;;;6.13;3.77;;;;;;;;;;5096808;28;20314;-63
2022/10/08 04:56:29;;;;;;;7.13;3.17;;;;;;;;;;5097841;28;20198;-65
2022/10/08 04:58:59;;;;;;;6.50;3.57;;;;;;;;;;5098627;28;20248;-65
2022/10/08 05:01:30;;;;;;;4.33;3.60;;;;;;;;;;5095034;28;20208;-65
2022/10/08 05:03:59;;;;;;;7.50;3.53;;;;;;;;;;5096986;28;20221;-63
2022/10/08 05:06:28;;;;;;;6.50;3.80;;;;;;;;;;5100238;28;20201;-63
2022/10/08 05:08:57;;;;;;;7.53;3.37;;;;;;;;;;5097572;28;20285;-63
2022/10/08 05:11:26;;;;;;;5.07;3.50;;;;;;;;;;5099187;28;20210;-64
2022/10/08 05:13:55;;;;;;;6.00;3.73;;;;;;;;;;5100041;28;20224;-64
2022/10/08 05:16:25;;;;;;;4.80;3.67;;;;;;;;;;5099887;28;20566;-65
2022/10/08 05:18:53;;;;;;;8.63;3.73;;;;;;;;;;5100642;28;20213;-63
2022/10/08 05:21:22;;;;;;;5.93;4.17;;;;;;;;;;5100815;28;20210;-63
2022/10/08 05:23:53;;;;;;;9.53;3.77;;;;;;;;;;5100017;28;20252;-62
2022/10/08 05:26:23;;;;;;;7.07;3.70;;;;;;;;;;5100159;28;20288;-65
2022/10/08 05:29:11;;;;;;;4.43;3.50;;;;;;;;;;5100188;28;20205;-64
2022/10/08 05:31:40;;;;;;;8.23;4.17;;;;;;;;;;5100582;28;20288;-64
2022/10/08 05:34:09;;;;;;;9.93;4.43;;;;;;;;;;5100382;28;20253;-64
2022/10/08 05:36:37;;;;;;;4.37;3.50;;;;;;;;;;5100326;28;20209;-64
2022/10/08 05:39:05;;;;;;;5.70;3.57;;;;;;;;;;5100005;28;20202;-64
2022/10/08 05:41:35;;;;;;;7.40;3.83;;;;;;;;;;5099698;28;20572;-64
2022/10/08 05:44:04;;;;;;;4.40;3.50;;;;;;;;;;5099970;28;20231;-63
2022/10/08 05:46:33;;;;;;;7.23;4.40;;;;;;;;;;5099790;28;20300;-63
2022/10/08 05:49:03;;;;;;;9.70;4.23;;;;;;;;;;5100012;28;20206;-63
2022/10/08 05:51:32;;;;;;;9.93;4.47;;;;;;;;;;5099631;28;20725;-62
2022/10/08 05:54:00;;;;;;;11.40;4.70;;;;;;;;;;5099521;28;20245;-62
2022/10/08 05:56:30;;;;;;;7.67;5.33;;;;;;;;;;5099146;28;20228;-63
2022/10/08 05:58:58;;;;;;;9.23;6.30;;;;;;;;;;5099758;28;20205;-63
2022/10/08 06:01:27;;;;;;;9.90;5.10;;;;;;;;;;5099432;28;20554;-63
2022/10/08 06:03:56;;;;;;;5.43;4.77;;;;;;;;;;5099285;28;20228;-64
2022/10/08 06:06:26;;;;;;;6.90;5.00;;;;;;;;;;5099421;28;20576;-64
2022/10/08 06:08:54;;;;;;;7.00;5.30;;;;;;;;;;5102699;28;20653;-64
2022/10/08 06:11:22;;;;;;;7.83;5.90;;;;;;;;;;5108138;28;20280;-64
2022/10/08 06:13:52;;;;;;;11.63;5.37;;;;;;;;;;5108204;28;20297;-63
2022/10/08 06:16:20;;;;;;;6.53;5.00;;;;;;;;;;5110422;28;20207;-65
2022/10/08 06:18:48;;;;;;;8.43;5.27;;;;;;;;;;5108598;28;20219;-64
2022/10/08 06:21:17;;;;;;;12.90;5.70;;;;;;;;;;5104495;28;20613;-64
2022/10/08 06:23:47;;;;;;;9.83;5.43;;;;;;;;;;5106641;28;20235;-65
2022/10/08 06:26:16;;;;;;;7.40;5.40;;;;;;;;;;5106894;28;20647;-65
2022/10/08 06:28:45;;;;;;;9.30;5.67;;;;;;;;;;5109284;28;20196;-65
2022/10/08 06:31:13;;;;;;;10.07;5.30;;;;;;;;;;5109581;28;20601;-65
2022/10/08 06:33:41;;;;;;;6.53;4.83;;;;;;;;;;5107189;28;20309;-65
2022/10/08 06:36:13;;;;;;;11.13;5.90;;;;;;;;;;5098803;28;20289;-66
2022/10/08 06:38:41;;;;;;;7.67;5.30;;;;;;;;;;5098682;28;20575;-65
2022/10/08 06:41:11;;;;;;;11.13;5.83;;;;;;;;;;5098172;28;20206;-65
2022/10/08 06:43:39;;;;;;;7.37;5.83;;;;;;;;;;5098698;28;20229;-65
2022/10/08 06:46:07;;;;;;;8.30;4.90;;;;;;;;;;5098421;28;20221;-65
2022/10/08 06:48:35;;;;;;;7.60;5.27;;;;;;;;;;5098540;28;20296;-64
2022/10/08 06:51:04;;;;;;;9.37;5.10;;;;;;;;;;5098590;28;20266;-65
2022/10/08 06:53:33;;;;;;;8.37;5.63;;;;;;;;;;5098337;28;20237;-65
2022/10/08 06:56:01;;;;;;;7.83;5.20;;;;;;;;;;5098075;28;20205;-65
2022/10/08 06:58:31;;;;;;;14.43;5.60;;;;;;;;;;5098711;28;20205;-65
2022/10/08 07:01:03;;;;;;;9.87;5.80;;;;;;;;;;5098527;28;20201;-66
2022/10/08 07:03:31;;;;;;;14.57;6.03;;;;;;;;;;5084778;28;20218;-64
2022/10/08 07:06:00;;;;;;;11.07;6.20;;;;;;;;;;5097757;28;20313;-64
2022/10/08 07:08:28;;;;;;;7.67;5.40;;;;;;;;;;5096039;28;20280;-65
2022/10/08 07:11:03;;;;;;;7.43;5.27;;;;;;;;;;5096542;28;20209;-66
2022/10/08 07:13:32;;;;;;;14.67;6.50;;;;;;;;;;5097573;28;20307;-64
2022/10/08 07:16:04;;;;;;;14.23;6.33;;;;;;;;;;5097605;28;20212;-63
2022/10/08 07:18:32;;;;;;;13.00;6.33;;;;;;;;;;5097979;28;20288;-63
2022/10/08 07:21:00;;;;;;;12.23;7.30;;;;;;;;;;5098035;28;20284;-63
2022/10/08 07:23:29;;;;;;;10.93;6.50;;;;;;;;;;5097656;28;20312;-63
2022/10/08 07:25:58;;;;;;;14.87;7.43;;;;;;;;;;5097607;28;20224;-64
2022/10/08 07:28:27;;;;;;;14.37;7.27;;;;;;;;;;5098373;28;20205;-64
2022/10/08 07:30:57;;;;;;;10.43;7.07;;;;;;;;;;5097965;28;20208;-64
2022/10/08 07:33:25;;;;;;;11.43;8.00;;;;;;;;;;5097703;28;20229;-65
2022/10/08 07:35:53;;;;;;;11.73;7.37;;;;;;;;;;5097957;28;20206;-65
2022/10/08 07:38:21;;;;;;;13.53;7.63;;;;;;;;;;5097576;28;20216;-65
2022/10/08 07:40:50;;;;;;;14.27;7.67;;;;;;;;;;5097282;28;20211;-66
2022/10/08 07:43:18;;;;;;;10.17;7.40;;;;;;;;;;5097782;28;20221;-65
2022/10/08 07:45:46;;;;;;;13.57;8.37;;;;;;;;;;5097622;28;20711;-66
2022/10/08 07:48:18;;;;;;;12.93;8.77;;;;;;;;;;5098141;28;20212;-66
2022/10/08 07:50:46;;;;;;;13.97;8.17;;;;;;;;;;5097960;28;20209;-66
2022/10/08 07:53:15;;;;;;;18.87;15.23;;;;;;;;;;5097483;28;20241;-66
2022/10/08 07:55:43;;;;;;;11.03;9.07;;;;;;;;;;5097577;28;20202;-66
2022/10/08 07:58:12;;;;;;;21.23;10.27;;;;;;;;;;5097576;28;20292;-66
2022/10/08 08:00:40;;;;;;;17.53;9.90;;;;;;;;;;5097829;28;20201;-67
2022/10/08 08:03:12;;;;;;;17.33;10.43;;;;;;;;;;5097343;28;20209;-66
2022/10/08 08:05:41;;;;;;;16.83;9.50;;;;;;;;;;5097672;28;20243;-67
2022/10/08 08:08:10;;;;;;;23.80;10.60;;;;;;;;;;5097594;28;20268;-67
2022/10/08 08:10:38;;;;;;;15.97;10.67;;;;;;;;;;5097357;28;20292;-67
2022/10/08 08:13:06;;;;;;;12.73;8.87;;;;;;;;;;5097587;28;20239;-68
2022/10/08 08:15:34;;;;;;;14.90;9.27;;;;;;;;;;5097431;28;20243;-68
2022/10/08 08:18:02;;;;;;;15.67;9.50;;;;;;;;;;5097718;28;20243;-67
2022/10/08 08:20:31;;;;;;;12.77;9.33;;;;;;;;;;5097327;28;20293;-67
2022/10/08 08:23:00;;;;;;;14.17;9.47;;;;;;;;;;5097279;28;20272;-67
2022/10/08 08:25:28;;;;;;;11.07;9.20;;;;;;;;;;5096863;28;20312;-67
2022/10/08 08:27:56;;;;;;;13.80;9.23;;;;;;;;;;5097810;28;20237;-67
2022/10/08 08:30:24;;;;;;;18.00;9.33;;;;;;;;;;5097553;28;20241;-66
2022/10/08 08:32:52;;;;;;;13.50;9.77;;;;;;;;;;5097307;28;20295;-67
2022/10/08 08:35:20;;;;;;;12.20;9.33;;;;;;;;;;5097305;28;20308;-66
2022/10/08 08:37:48;;;;;;;13.33;10.00;;;;;;;;;;5097325;28;20288;-66
2022/10/08 08:40:18;;;;;;;20.40;9.07;;;;;;;;;;5097213;28;20288;-66
2022/10/08 08:42:49;;;;;;;14.23;8.73;;;;;;;;;;5097532;28;20237;-65
2022/10/08 08:45:24;;;;;;;11.13;8.43;;;;;;;;;;5097224;28;20289;-65
2022/10/08 08:48:17;;;;;;;12.60;9.20;;;;;;;;;;5097336;28;20208;-65
2022/10/08 08:50:46;;;;;;;13.40;9.07;;;;;;;;;;5098538;28;20270;-65
2022/10/08 08:53:15;;;;;;;16.57;9.33;;;;;;;;;;5101021;28;20237;-65
2022/10/08 08:55:46;;;;;;;12.27;8.80;;;;;;;;;;5100607;28;20292;-65
2022/10/08 08:58:24;;;;;;;14.03;8.53;;;;;;;;;;5101058;28;20288;-65
2022/10/08 09:00:55;;;;;;;11.47;8.27;;;;;;;;;;5100664;28;20229;-64
2022/10/08 09:03:26;;;;;;;13.17;8.87;;;;;;;;;;5100636;28;20604;-65
2022/10/08 09:05:56;;;;;;;12.00;9.30;;;;;;;;;;5100855;28;20333;-65
2022/10/08 09:08:28;;;;;;;12.33;8.23;;;;;;;;;;5101050;28;20292;-65
2022/10/08 09:10:58;;;;;;;11.53;7.93;;;;;;;;;;5100191;28;20285;-65
2022/10/08 09:13:29;;;;;;;10.80;7.30;;;;;;;;;;5100490;28;20319;-65
2022/10/08 09:15:57;;;;;;;12.27;7.77;;;;;;;;;;5100475;28;20739;-65
2022/10/08 09:18:25;;;;;;;14.33;7.63;;;;;;;;;;5100427;28;20215;-65
2022/10/08 09:20:53;;;;;;;15.17;7.70;;;;;;;;;;5100253;28;20296;-65
2022/10/08 09:23:22;;;;;;;12.40;8.23;;;;;;;;;;5100257;28;20308;-65
2022/10/08 09:25:53;;;;;;;12.50;7.10;;;;;;;;;;5099836;28;20304;-64
2022/10/08 09:28:39;;;;;;;9.63;6.33;;;;;;;;;;5100467;28;20243;-65
2022/10/08 09:31:22;;;;;;;10.37;6.47;;;;;;;;;;5100117;28;20201;-65
2022/10/08 09:33:55;;;;;;;11.43;5.90;;;;;;;;;;5100216;28;20225;-65
2022/10/08 09:36:34;;;;;;;14.87;5.87;;;;;;;;;;5100345;28;20244;-65
2022/10/08 09:39:03;;;;;;;15.33;5.33;;;;;;;;;;5100284;28;20209;-65
2022/10/08 09:41:31;;;;;;;10.50;6.13;;;;;;;;;;5099427;28;20297;-64
2022/10/08 09:44:15;;;;;;;7.60;5.20;;;;;;;;;;5099829;28;20261;-65
2022/10/08 09:46:43;;;;;;;9.13;6.10;;;;;;;;;;5099794;28;20652;-65
2022/10/08 09:49:24;;;;;;;9.20;5.73;;;;;;;;;;5100001;28;20269;-63
2022/10/08 09:51:52;;;;;;;13.30;5.40;;;;;;;;;;5099623;28;20288;-64
2022/10/08 09:54:21;;;;;;;10.57;6.13;;;;;;;;;;5099926;28;20312;-62
2022/10/08 09:56:52;;;;;;;9.80;5.73;;;;;;;;;;5099088;28;20684;-64
2022/10/08 09:59:23;;;;;;;10.20;5.83;;;;;;;;;;5099957;28;20288;-64
2022/10/08 10:01:52;;;;;;;12.03;5.23;;;;;;;;;;5099739;28;20634;-65
2022/10/08 10:04:31;;;;;;;5.73;4.70;;;;;;;;;;5099717;28;20308;-66
2022/10/08 10:06:59;;;;;;;11.10;5.47;;;;;;;;;;5099593;28;20315;-66
2022/10/08 10:09:34;;;;;;;11.00;5.27;;;;;;;;;;5099648;28;20293;-65
2022/10/08 10:12:04;;;;;;;6.33;4.83;;;;;;;;;;5099045;28;20271;-66
2022/10/08 10:14:40;;;;;;;10.47;5.10;;;;;;;;;;5099284;28;20308;-66
2022/10/08 10:17:11;;;;;;;8.77;4.63;;;;;;;;;;5099199;28;20276;-66
2022/10/08 10:19:42;;;;;;;8.57;4.37;;;;;;;;;;5099152;28;20269;-66
2022/10/08 10:22:13;;;;;;;6.90;4.27;;;;;;;;;;5099280;28;20212;-66
2022/10/08 10:24:49;;;;;;;8.87;4.57;;;;;;;;;;5099079;28;20251;-65
2022/10/08 10:27:20;;;;;;;5.03;4.20;;;;;;;;;;5098565;28;20317;-66
2022/10/08 10:29:53;;;;;;;7.23;4.90;;;;;;;;;;5099249;28;20237;-66
2022/10/08 10:32:22;;;;;;;5.40;4.20;;;;;;;;;;5099006;28;20284;-66
2022/10/08 10:35:01;;;;;;;11.07;5.57;;;;;;;;;;5098765;28;20646;-66
2022/10/08 10:37:33;;;;;;;11.13;4.30;;;;;;;;;;5098986;28;20286;-65
2022/10/08 10:40:13;;;;;;;8.50;4.50;;;;;;;;;;5098888;28;20297;-66
2022/10/08 10:42:47;;;;;;;8.10;3.33;;;;;;;;;;5099067;28;20292;-66
2022/10/08 10:45:18;;;;;;;7.27;4.00;;;;;;;;;;5098835;28;20275;-65
2022/10/08 10:47:46;;;;;;;6.30;4.23;;;;;;;;;;5098702;28;20780;-65
2022/10/08 10:50:15;;;;;;;6.40;3.73;;;;;;;;;;5098514;28;20268;-66
2022/10/08 10:52:49;;;;;;;8.67;4.37;;;;;;;;;;5098493;28;20244;-66
2022/10/08 10:55:20;;;;;;;5.53;4.20;;;;;;;;;;5098236;28;20661;-65
2022/10/08 10:58:06;;;;;;;8.80;3.70;;;;;;;;;;5098652;28;20579;-65
2022/10/08 11:00:41;;;;;;;7.63;3.63;;;;;;;;;;5098570;28;20233;-66
2022/10/08 11:03:11;;;;;;;8.50;3.57;;;;;;;;;;5098318;28;20308;-65
2022/10/08 11:05:43;;;;;;;6.50;3.27;;;;;;;;;;5095049;28;20197;-65
2022/10/08 11:08:15;;;;;;;6.10;3.53;;;;;;;;;;5098235;28;20278;-65
2022/10/08 11:10:47;;;;;;;4.67;2.70;;;;;;;;;;5097776;28;20300;-65
2022/10/08 11:13:25;;;;;;;4.40;3.07;;;;;;;;;;5092692;28;20204;-65
2022/10/08 11:16:00;;;;;;;7.77;3.60;;;;;;;;;;5097945;28;20739;-65
2022/10/08 11:18:31;;;;;;;4.53;3.03;;;;;;;;;;5098440;28;20201;-65
2022/10/08 11:21:05;;;;;;;5.60;3.20;;;;;;;;;;5098187;28;20288;-65
2022/10/08 11:23:39;;;;;;;4.73;3.20;;;;;;;;;;5097711;28;20304;-65
2022/10/08 11:26:13;;;;;;;7.73;2.77;;;;;;;;;;5088104;28;20232;-65
2022/10/08 11:28:52;;;;;;;7.57;3.20;;;;;;;;;;5097780;28;20319;-65
2022/10/08 11:31:24;;;;;;;6.70;3.20;;;;;;;;;;5097994;28;20240;-65
2022/10/08 11:33:55;;;;;;;6.47;3.37;;;;;;;;;;5098332;28;20230;-65
2022/10/08 11:36:28;;;;;;;6.33;2.97;;;;;;;;;;5098568;28;20304;-65
2022/10/08 11:39:04;;;;;;;5.37;3.50;;;;;;;;;;5098210;28;20205;-65
2022/10/08 11:41:37;;;;;;;5.30;3.57;;;;;;;;;;5097525;28;20233;-65
2022/10/08 11:44:09;;;;;;;6.07;3.73;;;;;;;;;;5098246;28;20257;-65
2022/10/08 11:46:38;;;;;;;6.77;3.53;;;;;;;;;;5097978;28;20292;-65
2022/10/08 11:49:21;;;;;;;10.20;3.33;;;;;;;;;;5097824;28;20230;-65
2022/10/08 11:51:50;;;;;;;6.43;3.50;;;;;;;;;;5097263;28;20244;-65
2022/10/08 11:54:27;;;;;;;5.93;3.57;;;;;;;;;;5097959;28;20342;-65
2022/10/08 11:57:32;;;;;;;5.87;3.93;;;;;;;;;;5097546;28;20232;-64
2022/10/08 12:00:38;;;;;;;4.77;2.77;;;;;;;;;;5035210;28;20203;-65
2022/10/08 12:03:19;;;;;;;5.27;2.87;;;;;;;;;;5097610;28;20232;-65
2022/10/08 12:05:51;;;;;;;4.17;2.37;;;;;;;;;;5097569;28;20739;-65
2022/10/08 12:08:38;;;;;;;6.50;2.30;;;;;;;;;;5097383;28;20312;-65
2022/10/08 12:11:20;;;;;;;6.53;2.27;;;;;;;;;;5097120;28;20728;-65
2022/10/08 12:14:10;;;;;;;6.67;2.60;;;;;;;;;;5097382;28;20260;-64
2022/10/08 12:16:57;;;;;;;5.77;2.30;;;;;;;;;;5097757;28;20322;-64
2022/10/08 12:19:43;;;;;;;6.47;2.23;;;;;;;;;;5097311;28;20728;-65
2022/10/08 12:22:26;;;;;;;5.50;2.10;;;;;;;;;;5097350;28;20293;-65
2022/10/08 12:24:56;;;;;;;5.37;2.20;;;;;;;;;;5097108;28;20285;-65
2022/10/08 12:27:25;;;;;;;7.70;2.30;;;;;;;;;;5101318;28;20233;-65
2022/10/08 12:29:54;;;;;;;4.47;2.63;;;;;;;;;;5101323;28;20296;-65
2022/10/08 12:32:22;;;;;;;6.67;2.80;;;;;;;;;;5101475;28;20302;-65
2022/10/08 12:34:51;;;;;;;4.37;2.10;;;;;;;;;;5101552;28;20268;-64
2022/10/08 12:37:28;;;;;;;3.53;1.80;;;;;;;;;;5101447;28;20293;-65
2022/10/08 12:40:00;;;;;;;4.83;2.20;;;;;;;;;;5101158;28;20288;-64
2022/10/08 12:42:31;;;;;;;4.17;2.07;;;;;;;;;;5101390;28;20269;-65
2022/10/08 12:45:03;;;;;;;3.77;2.10;;;;;;;;;;5101258;28;20312;-65
2022/10/08 12:47:36;;;;;;;5.20;2.40;;;;;;;;;;5100869;28;20228;-64
2022/10/08 12:50:06;;;;;;;4.37;1.90;;;;;;;;;;5101127;28;20284;-65
2022/10/08 12:52:35;;;;;;;5.00;2.33;;;;;;;;;;5101232;28;20301;-64
2022/10/08 12:55:05;;;;;;;3.93;2.50;;;;;;;;;;5100665;28;20795;-65
2022/10/08 12:57:34;;;;;;;3.63;2.43;;;;;;;;;;5101084;28;20237;-65
2022/10/08 13:00:06;;;;;;;2.83;1.67;;;;;;;;;;5101049;28;20288;-65
2022/10/08 13:02:36;;;;;;;9.37;2.03;;;;;;;;;;5100808;28;20331;-65
2022/10/08 13:05:05;;;;;;;3.93;1.90;;;;;;;;;;5100841;28;20316;-63
2022/10/08 13:07:34;;;;;;;4.90;1.67;;;;;;;;;;5100653;28;20629;-65
2022/10/08 13:10:17;;;;;;;4.00;1.90;;;;;;;;;;5100485;28;20210;-65
2022/10/08 13:12:58;;;;;;;3.27;2.30;;;;;;;;;;5100796;28;20209;-65
2022/10/08 13:15:26;;;;;;;4.00;1.83;;;;;;;;;;5100515;28;20224;-65
2022/10/08 13:17:54;;;;;;;2.10;1.80;;;;;;;;;;5100742;28;20205;-65
2022/10/08 13:20:23;;;;;;;2.80;1.80;;;;;;;;;;5100437;28;20289;-65
2022/10/08 13:22:51;;;;;;;6.83;2.13;;;;;;;;;;5100320;28;20269;-64
2022/10/08 13:28:42;;;;;;;7.20;2.37;;;;;;;;;;5100147;28;20224;-64
2022/10/08 13:31:26;;;;;;;3.67;1.83;;;;;;;;;;5100237;28;20216;-64
2022/10/08 13:33:54;;;;;;;3.20;1.60;;;;;;;;;;5100126;28;20274;-64
2022/10/08 13:36:23;;;;;;;3.73;2.00;;;;;;;;;;5099645;28;20692;-64
2022/10/08 13:38:51;;;;;;;4.20;1.53;;;;;;;;;;5100181;28;20198;-64
2022/10/08 13:41:22;;;;;;;5.60;2.13;;;;;;;;;;5099931;28;20201;-65
2022/10/08 13:43:52;;;;;;;3.63;1.93;;;;;;;;;;5100047;28;20253;-64
2022/10/08 13:46:19;;;;;;;3.63;1.70;;;;;;;;;;5100144;28;20215;-64
2022/10/08 13:48:48;;;;;;;3.33;1.80;;;;;;;;;;5100241;28;20225;-64
2022/10/08 13:51:16;;;;;;;2.23;1.60;;;;;;;;;;5099821;28;20571;-65
2022/10/08 13:53:44;;;;;;;5.20;1.90;;;;;;;;;;5099395;28;20245;-64
2022/10/08 13:56:12;;;;;;;4.60;1.70;;;;;;;;;;5097730;28;20288;-64
2022/10/08 13:58:40;;;;;;;8.27;2.00;;;;;;;;;;5098350;28;20219;-64
2022/10/08 14:01:10;;;;;;;2.47;1.53;;;;;;;;;;5099052;28;20303;-64
2022/10/08 14:03:38;;;;;;;2.80;2.00;;;;;;;;;;5099379;28;20224;-64
2022/10/08 14:06:06;;;;;;;2.83;1.60;;;;;;;;;;5099064;28;20205;-64
2022/10/08 14:08:34;;;;;;;3.70;1.80;;;;;;;;;;5099256;28;20714;-64
2022/10/08 14:11:02;;;;;;;2.07;1.57;;;;;;;;;;5098975;28;20573;-64
2022/10/08 14:13:30;;;;;;;4.23;1.87;;;;;;;;;;5099313;28;20304;-64
2022/10/08 14:15:58;;;;;;;7.47;2.13;;;;;;;;;;5099232;28;20210;-64
2022/10/08 14:18:28;;;;;;;10.33;2.13;;;;;;;;;;5099508;28;20210;-64
2022/10/08 14:20:56;;;;;;;3.33;1.83;;;;;;;;;;5099096;28;20565;-64
2022/10/08 14:23:24;;;;;;;4.57;2.00;;;;;;;;;;5099296;28;20234;-64
2022/10/08 14:25:52;;;;;;;4.97;1.80;;;;;;;;;;5098687;28;20236;-64
2022/10/08 14:28:20;;;;;;;4.27;1.97;;;;;;;;;;5099798;28;20209;-64
2022/10/08 14:30:48;;;;;;;3.63;1.70;;;;;;;;;;5098800;28;20590;-64
2022/10/08 14:33:16;;;;;;;5.63;1.87;;;;;;;;;;5099046;28;20225;-64
2022/10/08 14:35:46;;;;;;;2.20;1.37;;;;;;;;;;5099209;28;20206;-62
2022/10/08 14:38:14;;;;;;;3.67;1.80;;;;;;;;;;5098589;28;20209;-64
2022/10/08 14:40:42;;;;;;;2.23;1.70;;;;;;;;;;5098324;28;20285;-64
2022/10/08 14:43:10;;;;;;;3.63;1.97;;;;;;;;;;5098397;28;20209;-64
2022/10/08 14:45:38;;;;;;;4.03;1.87;;;;;;;;;;5098695;28;20216;-65
2022/10/08 14:48:06;;;;;;;2.70;1.73;;;;;;;;;;5097939;28;20206;-65
2022/10/08 14:50:33;;;;;;;1.40;1.27;;;;;;;;;;5098216;28;20225;-64
2022/10/08 14:53:03;;;;;;;2.67;1.60;;;;;;;;;;5098211;28;20237;-64
2022/10/08 14:55:31;;;;;;;8.27;3.53;;;;;;;;;;5097981;28;20292;-65
2022/10/08 14:58:15;;;;;;;2.40;1.40;;;;;;;;;;5098319;28;20683;-65
2022/10/08 15:00:44;;;;;;;2.60;1.50;;;;;;;;;;5098504;28;20964;-65
2022/10/08 15:03:11;;;;;;;4.67;1.73;;;;;;;;;;5098212;28;20209;-65
2022/10/08 15:05:39;;;;;;;2.73;1.50;;;;;;;;;;5097777;28;20216;-64